sensor_id;sensor_type;location;lat;lon;timestamp;pressure;altitude;pressure_sealevel;temperature;humidity
56912;BME280;42800;53.928;27.662;2022-11-14T00:00:21;100701.53;;;3.92;100.00
56912;BME280;42800;53.928;27.662;2022-11-14T00:02:48;100691.00;;;3.90;100.00
56912;BME280;42800;53.928;27.662;2022-11-14T00:05:15;100699.97;;;3.86;100.00
56912;BME280;42800;53.928;27.662;2022-11-14T00:07:41;100706.19;;;3.86;100.00
56912;BME280;42800;53.928;27.662;2022-11-14T00:10:08;100705.75;;;3.74;100.00
56912;BME280;42800;53.928;27.662;2022-11-14T00:12:34;100704.09;;;3.78;100.00
56912;BME280;42800;53.928;27.662;2022-11-14T00:15:00;100695.84;;;3.49;100.00
56912;BME280;42800;53.928;27.662;2022-11-14T00:17:27;100681.16;;;3.60;100.00
56912;BME280;42800;53.928;27.662;2022-11-14T00:19:54;100674.38;;;3.58;100.00
56912;BME280;42800;53.928;27.662;2022-11-14T00:22:20;100681.66;;;3.67;100.00
56912;BME280;42800;53.928;27.662;2022-11-14T00:24:46;100677.94;;;3.53;100.00
56912;BME280;42800;53.928;27.662;2022-11-14T00:27:13;100677.66;;;3.54;100.00
56912;BME280;42800;53.928;27.662;2022-11-14T00:29:39;100667.06;;;3.58;100.00
56912;BME280;42800;53.928;27.662;2022-11-14T00:32:06;100661.06;;;3.61;100.00
56912;BME280;42800;53.928;27.662;2022-11-14T00:34:33;100667.34;;;3.57;100.00
56912;BME280;42800;53.928;27.662;2022-11-14T00:37:00;100660.13;;;3.42;100.00
56912;BME280;42800;53.928;27.662;2022-11-14T00:39:26;100646.59;;;3.37;100.00
56912;BME280;42800;53.928;27.662;2022-11-14T00:41:52;100628.88;;;3.49;100.00
56912;BME280;42800;53.928;27.662;2022-11-14T00:44:19;100612.59;;;3.54;100.00
56912;BME280;42800;53.928;27.662;2022-11-14T00:46:45;100606.84;;;3.61;100.00
56912;BME280;42800;53.928;27.662;2022-11-14T00:49:11;100594.78;;;3.77;100.00
56912;BME280;42800;53.928;27.662;2022-11-14T00:51:38;100600.78;;;3.74;100.00
56912;BME280;42800;53.928;27.662;2022-11-14T00:54:05;100604.19;;;3.85;100.00
56912;BME280;42800;53.928;27.662;2022-11-14T00:56:31;100606.69;;;3.76;100.00
56912;BME280;42800;53.928;27.662;2022-11-14T00:58:57;100614.19;;;3.90;100.00
56912;BME280;42800;53.928;27.662;2022-11-14T01:01:24;100616.16;;;3.84;100.00
56912;BME280;42800;53.928;27.662;2022-11-14T01:03:51;100614.56;;;3.78;100.00
56912;BME280;42800;53.928;27.662;2022-11-14T01:06:18;100624.22;;;3.89;100.00
56912;BME280;42800;53.928;27.662;2022-11-14T01:08:45;100620.25;;;4.11;100.00
56912;BME280;42800;53.928;27.662;2022-11-14T01:11:15;100639.09;;;4.26;100.00
56912;BME280;42800;53.928;27.662;2022-11-14T01:13:42;100661.81;;;4.06;100.00
56912;BME280;42800;53.928;27.662;2022-11-14T01:16:08;100661.00;;;4.06;100.00
56912;BME280;42800;53.928;27.662;2022-11-14T01:18:36;100668.06;;;4.36;100.00
56912;BME280;42800;53.928;27.662;2022-11-14T01:21:04;100689.97;;;4.15;100.00
56912;BME280;42800;53.928;27.662;2022-11-14T01:23:31;100697.75;;;4.27;100.00
56912;BME280;42800;53.928;27.662;2022-11-14T01:26:00;100707.06;;;4.16;100.00
56912;BME280;42800;53.928;27.662;2022-11-14T01:28:27;100704.81;;;4.23;100.00
56912;BME280;42800;53.928;27.662;2022-11-14T01:30:53;100717.88;;;4.21;100.00
56912;BME280;42800;53.928;27.662;2022-11-14T01:33:20;100726.81;;;4.27;100.00
56912;BME280;42800;53.928;27.662;2022-11-14T01:35:46;100748.22;;;3.94;100.00
56912;BME280;42800;53.928;27.662;2022-11-14T01:38:13;100749.09;;;4.23;100.00
56912;BME280;42800;53.928;27.662;2022-11-14T01:40:40;100767.44;;;4.37;100.00
56912;BME280;42800;53.928;27.662;2022-11-14T01:43:23;100782.44;;;4.58;100.00
56912;BME280;42800;53.928;27.662;2022-11-14T01:45:53;100802.59;;;4.52;100.00
56912;BME280;42800;53.928;27.662;2022-11-14T01:48:22;100829.25;;;4.11;100.00
56912;BME280;42800;53.928;27.662;2022-11-14T01:50:54;100811.16;;;4.35;100.00
56912;BME280;42800;53.928;27.662;2022-11-14T01:53:22;100823.84;;;4.45;100.00
56912;BME280;42800;53.928;27.662;2022-11-14T01:55:51;100835.09;;;4.62;100.00
56912;BME280;42800;53.928;27.662;2022-11-14T01:58:20;100859.22;;;4.69;100.00
56912;BME280;42800;53.928;27.662;2022-11-14T02:00:47;100866.41;;;4.55;100.00
56912;BME280;42800;53.928;27.662;2022-11-14T02:03:15;100867.22;;;4.55;100.00
56912;BME280;42800;53.928;27.662;2022-11-14T02:05:43;100872.81;;;4.69;100.00
56912;BME280;42800;53.928;27.662;2022-11-14T02:08:13;100883.59;;;4.79;100.00
56912;BME280;42800;53.928;27.662;2022-11-14T02:10:40;100892.00;;;4.83;100.00
56912;BME280;42800;53.928;27.662;2022-11-14T02:13:07;100909.47;;;4.77;100.00
56912;BME280;42800;53.928;27.662;2022-11-14T02:15:33;100910.13;;;4.53;100.00
56912;BME280;42800;53.928;27.662;2022-11-14T02:18:01;100904.50;;;4.44;100.00
56912;BME280;42800;53.928;27.662;2022-11-14T02:20:29;100902.59;;;4.45;100.00
56912;BME280;42800;53.928;27.662;2022-11-14T02:22:57;100899.13;;;3.80;100.00
56912;BME280;42800;53.928;27.662;2022-11-14T02:25:24;100884.28;;;4.16;100.00
56912;BME280;42800;53.928;27.662;2022-11-14T02:27:50;100866.50;;;4.00;100.00
56912;BME280;42800;53.928;27.662;2022-11-14T02:30:20;100865.41;;;4.01;100.00
56912;BME280;42800;53.928;27.662;2022-11-14T02:32:47;100870.94;;;4.25;100.00
56912;BME280;42800;53.928;27.662;2022-11-14T02:35:13;100875.44;;;4.45;100.00
56912;BME280;42800;53.928;27.662;2022-11-14T02:37:41;100891.81;;;4.35;100.00
56912;BME280;42800;53.928;27.662;2022-11-14T02:40:08;100899.66;;;4.36;100.00
56912;BME280;42800;53.928;27.662;2022-11-14T02:42:35;100893.66;;;4.39;100.00
56912;BME280;42800;53.928;27.662;2022-11-14T02:45:01;100893.22;;;4.22;100.00
56912;BME280;42800;53.928;27.662;2022-11-14T02:47:27;100892.19;;;4.13;100.00
56912;BME280;42800;53.928;27.662;2022-11-14T02:49:54;100883.03;;;4.04;100.00
56912;BME280;42800;53.928;27.662;2022-11-14T02:52:20;100873.09;;;4.28;100.00
56912;BME280;42800;53.928;27.662;2022-11-14T02:54:47;100882.06;;;4.29;100.00
56912;BME280;42800;53.928;27.662;2022-11-14T02:57:13;100891.25;;;4.38;100.00
56912;BME280;42800;53.928;27.662;2022-11-14T02:59:40;100896.69;;;4.38;100.00
56912;BME280;42800;53.928;27.662;2022-11-14T03:02:06;100902.03;;;4.48;100.00
56912;BME280;42800;53.928;27.662;2022-11-14T03:04:32;100900.75;;;4.40;100.00
56912;BME280;42800;53.928;27.662;2022-11-14T03:06:59;100906.25;;;4.25;100.00
56912;BME280;42800;53.928;27.662;2022-11-14T03:09:25;100899.94;;;4.40;100.00
56912;BME280;42800;53.928;27.662;2022-11-14T03:11:52;100912.66;;;4.44;100.00
56912;BME280;42800;53.928;27.662;2022-11-14T03:14:18;100905.00;;;4.07;100.00
56912;BME280;42800;53.928;27.662;2022-11-14T03:16:44;100905.38;;;4.40;100.00
56912;BME280;42800;53.928;27.662;2022-11-14T03:19:11;100904.59;;;4.29;100.00
56912;BME280;42800;53.928;27.662;2022-11-14T03:21:37;100917.97;;;4.60;100.00
56912;BME280;42800;53.928;27.662;2022-11-14T03:24:04;100914.19;;;4.61;100.00
56912;BME280;42800;53.928;27.662;2022-11-14T03:26:30;100922.47;;;4.40;100.00
56912;BME280;42800;53.928;27.662;2022-11-14T03:28:57;100916.09;;;4.55;100.00
56912;BME280;42800;53.928;27.662;2022-11-14T03:31:24;100924.31;;;4.50;100.00
56912;BME280;42800;53.928;27.662;2022-11-14T03:33:50;100925.59;;;4.58;100.00
56912;BME280;42800;53.928;27.662;2022-11-14T03:36:16;100915.13;;;4.36;100.00
56912;BME280;42800;53.928;27.662;2022-11-14T03:38:43;100920.19;;;4.53;100.00
56912;BME280;42800;53.928;27.662;2022-11-14T03:41:09;100917.41;;;4.63;100.00
56912;BME280;42800;53.928;27.662;2022-11-14T03:43:35;100913.84;;;4.28;100.00
56912;BME280;42800;53.928;27.662;2022-11-14T03:46:03;100910.25;;;4.33;100.00
56912;BME280;42800;53.928;27.662;2022-11-14T03:48:30;100909.69;;;4.41;100.00
56912;BME280;42800;53.928;27.662;2022-11-14T03:50:56;100910.19;;;4.43;100.00
56912;BME280;42800;53.928;27.662;2022-11-14T03:53:23;100906.97;;;4.41;100.00
56912;BME280;42800;53.928;27.662;2022-11-14T03:55:50;100902.69;;;4.30;100.00
56912;BME280;42800;53.928;27.662;2022-11-14T03:58:16;100904.66;;;4.63;100.00
56912;BME280;42800;53.928;27.662;2022-11-14T04:00:43;100912.34;;;4.51;100.00
56912;BME280;42800;53.928;27.662;2022-11-14T04:03:10;100914.09;;;4.71;100.00
56912;BME280;42800;53.928;27.662;2022-11-14T04:05:36;100914.66;;;4.68;100.00
56912;BME280;42800;53.928;27.662;2022-11-14T04:08:04;100904.03;;;4.77;100.00
56912;BME280;42800;53.928;27.662;2022-11-14T04:10:30;100906.41;;;4.44;100.00
56912;BME280;42800;53.928;27.662;2022-11-14T04:12:56;100890.22;;;4.68;100.00
56912;BME280;42800;53.928;27.662;2022-11-14T04:15:23;100888.84;;;4.70;100.00
56912;BME280;42800;53.928;27.662;2022-11-14T04:17:50;100884.69;;;4.83;100.00
56912;BME280;42800;53.928;27.662;2022-11-14T04:20:17;100883.28;;;4.86;100.00
56912;BME280;42800;53.928;27.662;2022-11-14T04:22:44;100881.38;;;4.86;100.00
56912;BME280;42800;53.928;27.662;2022-11-14T04:25:11;100879.03;;;4.75;100.00
56912;BME280;42800;53.928;27.662;2022-11-14T04:27:37;100884.13;;;4.81;100.00
56912;BME280;42800;53.928;27.662;2022-11-14T04:30:04;100880.25;;;4.58;100.00
56912;BME280;42800;53.928;27.662;2022-11-14T04:32:31;100897.16;;;4.50;100.00
56912;BME280;42800;53.928;27.662;2022-11-14T04:34:57;100901.84;;;4.34;100.00
56912;BME280;42800;53.928;27.662;2022-11-14T04:37:24;100899.63;;;4.41;100.00
56912;BME280;42800;53.928;27.662;2022-11-14T04:39:50;100907.28;;;4.34;100.00
56912;BME280;42800;53.928;27.662;2022-11-14T04:42:17;100912.88;;;4.04;100.00
56912;BME280;42800;53.928;27.662;2022-11-14T04:44:43;100917.47;;;4.08;100.00
56912;BME280;42800;53.928;27.662;2022-11-14T04:47:09;100925.50;;;4.34;100.00
56912;BME280;42800;53.928;27.662;2022-11-14T04:49:36;100927.78;;;4.06;100.00
56912;BME280;42800;53.928;27.662;2022-11-14T04:52:02;100925.00;;;4.16;100.00
56912;BME280;42800;53.928;27.662;2022-11-14T04:54:29;100926.06;;;4.25;100.00
56912;BME280;42800;53.928;27.662;2022-11-14T04:56:55;100926.16;;;4.55;100.00
56912;BME280;42800;53.928;27.662;2022-11-14T04:59:21;100932.69;;;4.54;100.00
56912;BME280;42800;53.928;27.662;2022-11-14T05:01:48;100927.47;;;4.62;100.00
56912;BME280;42800;53.928;27.662;2022-11-14T05:04:14;100913.72;;;4.48;100.00
56912;BME280;42800;53.928;27.662;2022-11-14T05:06:41;100917.53;;;4.47;100.00
56912;BME280;42800;53.928;27.662;2022-11-14T05:09:07;100917.28;;;4.44;100.00
56912;BME280;42800;53.928;27.662;2022-11-14T05:11:34;100914.31;;;4.40;100.00
56912;BME280;42800;53.928;27.662;2022-11-14T05:14:00;100909.88;;;4.10;100.00
56912;BME280;42800;53.928;27.662;2022-11-14T05:16:27;100926.97;;;4.06;100.00
56912;BME280;42800;53.928;27.662;2022-11-14T05:18:53;100928.00;;;4.20;100.00
56912;BME280;42800;53.928;27.662;2022-11-14T05:21:23;100934.81;;;4.12;100.00
56912;BME280;42800;53.928;27.662;2022-11-14T05:23:50;100934.75;;;4.28;100.00
56912;BME280;42800;53.928;27.662;2022-11-14T05:26:17;100936.56;;;4.42;100.00
56912;BME280;42800;53.928;27.662;2022-11-14T05:28:44;100941.53;;;4.30;100.00
56912;BME280;42800;53.928;27.662;2022-11-14T05:31:12;100944.50;;;4.34;100.00
56912;BME280;42800;53.928;27.662;2022-11-14T05:33:39;100941.13;;;4.52;100.00
56912;BME280;42800;53.928;27.662;2022-11-14T05:36:08;100930.78;;;4.54;100.00
56912;BME280;42800;53.928;27.662;2022-11-14T05:38:35;100915.25;;;4.20;100.00
56912;BME280;42800;53.928;27.662;2022-11-14T05:41:04;100926.03;;;4.31;100.00
56912;BME280;42800;53.928;27.662;2022-11-14T05:43:31;100926.06;;;4.25;100.00
56912;BME280;42800;53.928;27.662;2022-11-14T05:45:59;100945.38;;;4.19;100.00
56912;BME280;42800;53.928;27.662;2022-11-14T05:48:25;100947.28;;;4.18;100.00
56912;BME280;42800;53.928;27.662;2022-11-14T05:50:53;100936.75;;;4.07;100.00
56912;BME280;42800;53.928;27.662;2022-11-14T05:53:19;100949.97;;;4.23;100.00
56912;BME280;42800;53.928;27.662;2022-11-14T05:55:46;100939.47;;;4.07;100.00
56912;BME280;42800;53.928;27.662;2022-11-14T05:58:12;100949.00;;;3.94;100.00
56912;BME280;42800;53.928;27.662;2022-11-14T06:00:38;100947.03;;;4.10;100.00
56912;BME280;42800;53.928;27.662;2022-11-14T06:03:05;100952.78;;;3.93;100.00
56912;BME280;42800;53.928;27.662;2022-11-14T06:05:33;100951.28;;;4.26;100.00
56912;BME280;42800;53.928;27.662;2022-11-14T06:07:59;100938.47;;;4.42;100.00
56912;BME280;42800;53.928;27.662;2022-11-14T06:10:26;100932.47;;;4.45;100.00
56912;BME280;42800;53.928;27.662;2022-11-14T06:12:52;100939.44;;;4.61;100.00
56912;BME280;42800;53.928;27.662;2022-11-14T06:15:19;100921.78;;;4.59;100.00
56912;BME280;42800;53.928;27.662;2022-11-14T06:17:45;100900.91;;;4.54;100.00
56912;BME280;42800;53.928;27.662;2022-11-14T06:20:13;100889.44;;;4.62;100.00
56912;BME280;42800;53.928;27.662;2022-11-14T06:22:40;100874.16;;;4.71;100.00
56912;BME280;42800;53.928;27.662;2022-11-14T06:25:07;100853.13;;;4.87;100.00
56912;BME280;42800;53.928;27.662;2022-11-14T06:27:33;100850.72;;;4.81;100.00
56912;BME280;42800;53.928;27.662;2022-11-14T06:30:00;100840.47;;;5.02;100.00
56912;BME280;42800;53.928;27.662;2022-11-14T06:32:26;100805.53;;;4.90;100.00
56912;BME280;42800;53.928;27.662;2022-11-14T06:34:52;100882.34;;;6.02;100.00
56912;BME280;42800;53.928;27.662;2022-11-14T06:37:19;100806.16;;;5.78;100.00
56912;BME280;42800;53.928;27.662;2022-11-14T06:39:45;100684.00;;;5.57;100.00
56912;BME280;42800;53.928;27.662;2022-11-14T06:42:14;100597.69;;;5.25;100.00
56912;BME280;42800;53.928;27.662;2022-11-14T06:44:40;100572.63;;;5.28;100.00
56912;BME280;42800;53.928;27.662;2022-11-14T06:47:07;100525.63;;;5.09;100.00
56912;BME280;42800;53.928;27.662;2022-11-14T06:49:33;100598.41;;;4.93;100.00
56912;BME280;42800;53.928;27.662;2022-11-14T06:51:59;100636.91;;;5.00;100.00
56912;BME280;42800;53.928;27.662;2022-11-14T06:54:26;100640.50;;;4.95;100.00
56912;BME280;42800;53.928;27.662;2022-11-14T06:56:53;100710.06;;;5.21;100.00
56912;BME280;42800;53.928;27.662;2022-11-14T06:59:19;100688.75;;;5.28;100.00
56912;BME280;42800;53.928;27.662;2022-11-14T07:01:45;100622.69;;;5.27;100.00
56912;BME280;42800;53.928;27.662;2022-11-14T07:04:12;100599.59;;;5.25;100.00
56912;BME280;42800;53.928;27.662;2022-11-14T07:06:38;100563.78;;;5.36;100.00
56912;BME280;42800;53.928;27.662;2022-11-14T07:09:04;100536.25;;;5.24;100.00
56912;BME280;42800;53.928;27.662;2022-11-14T07:11:34;100525.38;;;5.24;100.00
56912;BME280;42800;53.928;27.662;2022-11-14T07:14:01;100546.63;;;5.22;100.00
56912;BME280;42800;53.928;27.662;2022-11-14T07:16:29;100565.00;;;5.30;100.00
56912;BME280;42800;53.928;27.662;2022-11-14T07:18:56;100561.31;;;5.02;100.00
56912;BME280;42800;53.928;27.662;2022-11-14T07:21:23;100606.31;;;4.89;100.00
56912;BME280;42800;53.928;27.662;2022-11-14T07:23:49;100616.03;;;4.77;100.00
56912;BME280;42800;53.928;27.662;2022-11-14T07:26:16;100659.56;;;4.42;100.00
56912;BME280;42800;53.928;27.662;2022-11-14T07:28:44;100686.53;;;4.87;100.00
56912;BME280;42800;53.928;27.662;2022-11-14T07:31:11;100668.31;;;4.87;100.00
56912;BME280;42800;53.928;27.662;2022-11-14T07:33:39;100649.53;;;4.91;100.00
56912;BME280;42800;53.928;27.662;2022-11-14T07:36:06;100584.56;;;5.13;100.00
56912;BME280;42800;53.928;27.662;2022-11-14T07:38:35;100511.78;;;5.24;100.00
56912;BME280;42800;53.928;27.662;2022-11-14T07:41:03;100503.75;;;4.81;100.00
56912;BME280;42800;53.928;27.662;2022-11-14T07:43:30;100483.97;;;4.94;100.00
56912;BME280;42800;53.928;27.662;2022-11-14T07:46:01;100500.66;;;5.07;100.00
56912;BME280;42800;53.928;27.662;2022-11-14T07:48:27;100481.84;;;4.91;100.00
56912;BME280;42800;53.928;27.662;2022-11-14T07:50:57;100486.84;;;5.03;100.00
56912;BME280;42800;53.928;27.662;2022-11-14T07:53:24;100488.09;;;4.92;100.00
56912;BME280;42800;53.928;27.662;2022-11-14T07:55:50;100482.16;;;4.71;100.00
56912;BME280;42800;53.928;27.662;2022-11-14T07:58:16;100539.88;;;5.01;100.00
56912;BME280;42800;53.928;27.662;2022-11-14T08:00:43;100574.97;;;5.16;100.00
56912;BME280;42800;53.928;27.662;2022-11-14T08:03:10;100544.69;;;5.23;100.00
56912;BME280;42800;53.928;27.662;2022-11-14T08:05:36;100515.69;;;4.99;100.00
56912;BME280;42800;53.928;27.662;2022-11-14T08:08:03;100564.84;;;4.84;100.00
56912;BME280;42800;53.928;27.662;2022-11-14T08:10:30;100630.72;;;4.94;100.00
56912;BME280;42800;53.928;27.662;2022-11-14T08:12:56;100644.69;;;4.64;100.00
56912;BME280;42800;53.928;27.662;2022-11-14T08:15:23;100608.38;;;4.79;100.00
56912;BME280;42800;53.928;27.662;2022-11-14T08:17:50;100529.31;;;4.56;100.00
56912;BME280;42800;53.928;27.662;2022-11-14T08:20:17;100607.16;;;4.18;100.00
56912;BME280;42800;53.928;27.662;2022-11-14T08:22:43;100631.59;;;4.66;100.00
56912;BME280;42800;53.928;27.662;2022-11-14T08:25:10;100596.53;;;4.69;100.00
56912;BME280;42800;53.928;27.662;2022-11-14T08:27:36;100626.97;;;4.42;100.00
56912;BME280;42800;53.928;27.662;2022-11-14T08:30:03;100655.59;;;4.35;100.00
56912;BME280;42800;53.928;27.662;2022-11-14T08:32:29;100658.00;;;4.36;100.00
56912;BME280;42800;53.928;27.662;2022-11-14T08:34:55;100653.06;;;4.43;100.00
56912;BME280;42800;53.928;27.662;2022-11-14T08:37:22;100647.19;;;4.60;100.00
56912;BME280;42800;53.928;27.662;2022-11-14T08:39:49;100646.44;;;4.25;100.00
56912;BME280;42800;53.928;27.662;2022-11-14T08:42:15;100675.38;;;4.64;100.00
56912;BME280;42800;53.928;27.662;2022-11-14T08:44:42;100639.41;;;4.72;100.00
56912;BME280;42800;53.928;27.662;2022-11-14T08:47:08;100647.44;;;4.35;100.00
56912;BME280;42800;53.928;27.662;2022-11-14T08:49:34;100671.69;;;5.03;100.00
56912;BME280;42800;53.928;27.662;2022-11-14T08:52:01;100629.41;;;4.92;100.00
56912;BME280;42800;53.928;27.662;2022-11-14T08:54:28;100620.78;;;4.85;100.00
56912;BME280;42800;53.928;27.662;2022-11-14T08:56:54;100586.75;;;5.30;100.00
56912;BME280;42800;53.928;27.662;2022-11-14T08:59:21;100524.69;;;5.32;100.00
56912;BME280;42800;53.928;27.662;2022-11-14T09:01:47;100427.78;;;5.23;100.00
56912;BME280;42800;53.928;27.662;2022-11-14T09:04:13;100354.50;;;5.17;100.00
56912;BME280;42800;53.928;27.662;2022-11-14T09:06:40;100331.03;;;5.35;100.00
56912;BME280;42800;53.928;27.662;2022-11-14T09:09:06;100272.53;;;5.52;100.00
56912;BME280;42800;53.928;27.662;2022-11-14T09:11:33;100271.75;;;5.24;100.00
56912;BME280;42800;53.928;27.662;2022-11-14T09:14:00;100277.19;;;5.24;100.00
56912;BME280;42800;53.928;27.662;2022-11-14T09:16:27;100277.78;;;4.60;100.00
56912;BME280;42800;53.928;27.662;2022-11-14T09:18:53;100365.13;;;4.67;100.00
56912;BME280;42800;53.928;27.662;2022-11-14T09:21:19;100406.50;;;4.97;100.00
56912;BME280;42800;53.928;27.662;2022-11-14T09:23:46;100396.78;;;4.58;100.00
56912;BME280;42800;53.928;27.662;2022-11-14T09:26:12;100455.47;;;5.11;100.00
56912;BME280;42800;53.928;27.662;2022-11-14T09:28:39;100432.06;;;4.77;100.00
56912;BME280;42800;53.928;27.662;2022-11-14T09:31:08;100454.69;;;5.24;100.00
56912;BME280;42800;53.928;27.662;2022-11-14T09:33:35;100376.88;;;5.42;100.00
56912;BME280;42800;53.928;27.662;2022-11-14T09:36:03;100327.72;;;5.38;100.00
56912;BME280;42800;53.928;27.662;2022-11-14T09:38:30;100328.31;;;5.35;100.00
56912;BME280;42800;53.928;27.662;2022-11-14T09:41:04;100313.44;;;5.60;100.00
56912;BME280;42800;53.928;27.662;2022-11-14T09:43:50;100256.91;;;5.30;100.00
56912;BME280;42800;53.928;27.662;2022-11-14T09:46:21;100296.00;;;5.34;100.00
56912;BME280;42800;53.928;27.662;2022-11-14T09:48:50;100320.38;;;5.66;100.00
56912;BME280;42800;53.928;27.662;2022-11-14T09:51:20;100297.09;;;5.33;100.00
56912;BME280;42800;53.928;27.662;2022-11-14T09:53:51;100281.75;;;5.78;100.00
56912;BME280;42800;53.928;27.662;2022-11-14T09:56:21;100193.03;;;5.55;100.00
56912;BME280;42800;53.928;27.662;2022-11-14T09:58:50;100223.00;;;5.13;100.00
56912;BME280;42800;53.928;27.662;2022-11-14T10:01:31;100325.31;;;5.23;100.00
56912;BME280;42800;53.928;27.662;2022-11-14T10:04:08;100332.47;;;5.47;100.00
56912;BME280;42800;53.928;27.662;2022-11-14T10:06:42;100312.00;;;5.22;100.00
56912;BME280;42800;53.928;27.662;2022-11-14T10:09:29;100319.03;;;5.23;100.00
56912;BME280;42800;53.928;27.662;2022-11-14T10:12:03;100263.03;;;5.49;100.00
56912;BME280;42800;53.928;27.662;2022-11-14T10:15:10;100160.16;;;5.29;100.00
56912;BME280;42800;53.928;27.662;2022-11-14T10:17:55;100206.78;;;5.22;100.00
56912;BME280;42800;53.928;27.662;2022-11-14T10:20:32;100265.94;;;4.37;100.00
56912;BME280;42800;53.928;27.662;2022-11-14T10:23:05;100357.09;;;5.23;100.00
56912;BME280;42800;53.928;27.662;2022-11-14T10:25:44;100297.28;;;5.36;100.00
56912;BME280;42800;53.928;27.662;2022-11-14T10:28:33;100296.38;;;5.69;100.00
56912;BME280;42800;53.928;27.662;2022-11-14T10:31:10;100189.09;;;4.97;100.00
56912;BME280;42800;53.928;27.662;2022-11-14T10:33:47;100167.25;;;5.52;100.00
56912;BME280;42800;53.928;27.662;2022-11-14T10:36:24;100200.75;;;4.84;100.00
56912;BME280;42800;53.928;27.662;2022-11-14T10:38:58;100317.00;;;4.87;100.00
56912;BME280;42800;53.928;27.662;2022-11-14T10:41:28;100362.34;;;4.54;100.00
56912;BME280;42800;53.928;27.662;2022-11-14T10:43:55;100361.56;;;4.86;100.00
56912;BME280;42800;53.928;27.662;2022-11-14T10:46:25;100350.88;;;5.36;100.00
56912;BME280;42800;53.928;27.662;2022-11-14T10:48:55;100279.97;;;5.05;100.00
56912;BME280;42800;53.928;27.662;2022-11-14T10:51:24;100287.84;;;5.20;100.00
56912;BME280;42800;53.928;27.662;2022-11-14T10:53:54;100243.31;;;5.30;100.00
56912;BME280;42800;53.928;27.662;2022-11-14T10:56:21;100172.94;;;5.28;100.00
56912;BME280;42800;53.928;27.662;2022-11-14T10:58:47;100162.41;;;4.85;100.00
56912;BME280;42800;53.928;27.662;2022-11-14T11:01:35;100189.09;;;4.83;100.00
56912;BME280;42800;53.928;27.662;2022-11-14T11:04:14;100247.28;;;5.10;100.00
56912;BME280;42800;53.928;27.662;2022-11-14T11:06:43;100316.66;;;4.75;100.00
56912;BME280;42800;53.928;27.662;2022-11-14T11:09:14;100369.28;;;4.79;100.00
56912;BME280;42800;53.928;27.662;2022-11-14T11:12:00;100362.16;;;5.29;100.00
56912;BME280;42800;53.928;27.662;2022-11-14T11:14:28;100265.06;;;5.02;100.00
56912;BME280;42800;53.928;27.662;2022-11-14T11:17:14;100281.28;;;5.35;100.00
56912;BME280;42800;53.928;27.662;2022-11-14T11:19:43;100168.22;;;5.20;100.00
56912;BME280;42800;53.928;27.662;2022-11-14T11:22:36;100103.28;;;5.55;100.00
56912;BME280;42800;53.928;27.662;2022-11-14T11:25:22;100092.88;;;5.34;100.00
56912;BME280;42800;53.928;27.662;2022-11-14T11:28:03;100074.47;;;5.54;100.00
56912;BME280;42800;53.928;27.662;2022-11-14T11:30:29;100047.13;;;5.14;100.00
56912;BME280;42800;53.928;27.662;2022-11-14T11:32:56;100169.81;;;4.38;100.00
56912;BME280;42800;53.928;27.662;2022-11-14T11:35:40;100379.22;;;4.32;100.00
56912;BME280;42800;53.928;27.662;2022-11-14T11:38:07;100400.31;;;4.91;100.00
56912;BME280;42800;53.928;27.662;2022-11-14T11:40:34;100318.00;;;4.91;100.00
56912;BME280;42800;53.928;27.662;2022-11-14T11:43:02;100314.19;;;4.59;100.00
56912;BME280;42800;53.928;27.662;2022-11-14T11:45:32;100310.66;;;4.91;100.00
56912;BME280;42800;53.928;27.662;2022-11-14T11:48:07;100232.66;;;4.92;100.00
56912;BME280;42800;53.928;27.662;2022-11-14T11:50:39;100212.13;;;5.27;100.00
56912;BME280;42800;53.928;27.662;2022-11-14T11:53:14;100143.13;;;5.37;100.00
56912;BME280;42800;53.928;27.662;2022-11-14T11:55:45;100107.69;;;5.28;100.00
56912;BME280;42800;53.928;27.662;2022-11-14T11:58:18;100216.84;;;5.08;100.00
56912;BME280;42800;53.928;27.662;2022-11-14T12:00:45;100214.53;;;5.15;100.00
56912;BME280;42800;53.928;27.662;2022-11-14T12:03:13;100258.94;;;4.50;100.00
56912;BME280;42800;53.928;27.662;2022-11-14T12:05:45;100412.91;;;4.31;100.00
56912;BME280;42800;53.928;27.662;2022-11-14T12:08:20;100427.28;;;4.69;100.00
56912;BME280;42800;53.928;27.662;2022-11-14T12:10:49;100331.69;;;5.00;100.00
56912;BME280;42800;53.928;27.662;2022-11-14T12:16:30;100119.44;;;5.37;100.00
56912;BME280;42800;53.928;27.662;2022-11-14T12:19:28;100066.28;;;5.31;100.00
56912;BME280;42800;53.928;27.662;2022-11-14T12:22:11;100041.06;;;5.39;100.00
56912;BME280;42800;53.928;27.662;2022-11-14T12:24:55;100049.22;;;5.39;100.00
56912;BME280;42800;53.928;27.662;2022-11-14T12:27:38;100014.50;;;5.36;100.00
56912;BME280;42800;53.928;27.662;2022-11-14T12:30:12;99952.16;;;5.40;100.00
56912;BME280;42800;53.928;27.662;2022-11-14T12:32:43;99939.81;;;4.89;100.00
56912;BME280;42800;53.928;27.662;2022-11-14T12:35:17;100021.88;;;5.13;100.00
56912;BME280;42800;53.928;27.662;2022-11-14T12:37:47;100134.34;;;4.90;100.00
56912;BME280;42800;53.928;27.662;2022-11-14T12:40:25;100098.06;;;5.08;100.00
56912;BME280;42800;53.928;27.662;2022-11-14T12:42:52;100240.66;;;4.69;100.00
56912;BME280;42800;53.928;27.662;2022-11-14T12:45:55;100236.28;;;5.29;100.00
56912;BME280;42800;53.928;27.662;2022-11-14T12:48:29;100106.44;;;4.98;100.00
56912;BME280;42800;53.928;27.662;2022-11-14T12:50:58;100162.25;;;5.32;100.00